Las Vegas, Nevada (DRI) Weather observations

Data are for observation ending at time listed.
 Day   Time    Ave.   Ave.  Ave.  Vector   Max.   Stn.    Total    Solar   Ave.  
  of    of     Air    Rel.  Wind   Wind    Wind   Baro.  Precip.   Rad.    Soil  
Year   Day     Temp.  Hum.  Speed  Dir.    Gust   Pres.                    Temp. 
2014   (PST)    F      %     mph   deg.    mph     mb.     in.     W/m2     F   
------------------------------------------------------------------------------
 242    0:20   88.7    13    1.0   163      3.7   937.6    0.00       1    98.5
 242    0:30   88.1    13    0.0   147      1.4   937.7    0.00       2    98.4
 242    0:40   87.3    14    0.0    96      0.5   937.7    0.00       2    98.3
 242    0:50   86.2    15    0.0     0      0.0   937.8    0.00       2    98.1
 242    1:00   85.3    18    0.0   168      0.2   937.7    0.00       2    98.0
 242    1:10   85.0    18    0.4    98      2.0   937.7    0.00       2    97.9
 242    1:20   84.7    18    0.3   135      1.9   937.7    0.00       2    97.8
 242    1:30   83.5    20    0.6   161      2.3   937.8    0.00       2    97.7
 242    1:40   82.9    22    0.8   164      1.9   937.8    0.00       0    97.6
 242    1:50   82.5    22    0.1   158      1.5   937.8    0.00       1    97.5
 242    2:00   82.5    21    0.0     0      0.0   937.7    0.00       1    97.4
 242    2:10   82.7    20    0.0     0      0.0   937.7    0.00       0    97.3
 242    2:20   82.8    22    0.0     0      0.0   937.7    0.00       0    97.2
 242    2:30   83.3    20    0.7   171      2.0   937.7    0.00       1    97.1
 242    2:40   83.3    21    0.3   171      1.8   937.7    0.00       0    97.0
 242    2:50   82.1    23    0.0     0      0.0   937.7    0.00       1    96.9
 242    3:00   81.7    23    0.1    29      1.5   937.8    0.00       0    96.7
 242    3:10   81.6    24    0.0     0      0.0   937.8    0.00       0    96.6
 242    3:20   80.6    26    0.0     0      0.0   937.9    0.00       0    96.5
 242    3:30   80.8    25    0.0   233      0.3   937.9    0.00       1    96.4
 242    3:40   80.8    25    0.0     0      0.0   938.0    0.00       0    96.3
 242    3:50   80.4    26    0.0     0      0.0   938.0    0.00       1    96.2
 242    4:00   80.0    26    0.0     0      0.0   938.0    0.00       0    96.1
 242    4:10   80.0    26    0.0   233      0.1   938.1    0.00       0    96.0
 242    4:20   80.2    25    0.0     0      0.0   938.2    0.00       1    95.9
 242    4:30   79.7    26    0.0     0      0.0   938.2    0.00       0    95.8
 242    4:40   78.9    27    0.0   233      0.1   938.3    0.00       0    95.7
 242    4:50   79.2    26    0.3   189      2.3   938.3    0.00       0    95.6
 242    5:00   79.5    25    0.0   221      0.5   938.3    0.00       1    95.5
 242    5:10   79.9    24    0.1   221      1.8   938.4    0.00       3    95.4
 242    5:20   79.8    25    0.0     0      0.0   938.6    0.00       5    95.2
 242    5:30   79.9    25    0.0     0      0.0   938.6    0.00      11    95.1
 242    5:40   80.5    24    0.2   271      1.7   938.7    0.00      16    95.0
 242    5:50   80.8    24    0.3   181      2.6   938.8    0.00      20    94.9
 242    6:00   80.7    25    0.1   176      0.7   938.8    0.00      27    94.8
 242    6:10   81.8    22    0.0   217      0.3   938.8    0.00      32    94.7
 242    6:20   82.2    22    0.0    66      0.7   938.9    0.00      36    94.5
 242    6:30   82.3    22    0.0     0      0.0   938.9    0.00      43    94.4
 242    6:40   83.3    21    1.5     9      2.6   938.9    0.00      55    94.3
 242    6:50   83.9    20    0.9   345      3.2   939.0    0.00      75    94.2
 242    7:00   84.7    20    1.1   345      4.0   939.1    0.00      84    94.1
 242    7:10   84.9    18    2.4   351      4.3   939.1    0.00      85    94.0
 242    7:20   85.1    18    2.0     3      4.5   939.1    0.00     102    93.9
 242    7:30   85.6    17    1.5   356      3.0   939.1    0.00     105    93.8
 242    7:40   85.9    18    1.0   325      2.6   939.0    0.00     103    93.7
 242    7:50   86.3    17    1.8   334      3.9   939.1    0.00     116    93.6
 242    8:00   86.6    18    2.0   330      3.9   939.1    0.00     217    93.5
 242    8:10   87.1    18    1.1   351      3.2   939.1    0.00     164    93.4
 242    8:20   87.9    18    1.0    27      3.3   939.1    0.00     204    93.3
 242    8:30   89.0    16    0.7    28      2.8   939.2    0.00     414    93.3
 242    8:40   90.1    15    0.5    45      2.2   939.3    0.00     430    93.2
 242    8:50   90.5    15    0.5    41      2.5   939.4    0.00     509    93.1
 242    9:00   91.1    15    0.7    24      2.5   939.3    0.00     524    93.0
 242    9:10   91.9    15    0.7    13      3.3   939.3    0.00     508    92.9
 242    9:20   92.5    15    0.8    45      3.1   939.3    0.00     645    92.8
 242    9:30   93.5    14    0.9    39      3.1   939.2    0.00     722    92.8
 242    9:40   94.2    13    0.9    54      3.1   939.1    0.00     746    92.8
 242    9:50   94.9    13    0.6    53      3.6   939.0    0.00     687    92.7
 242   10:00   96.2    12    1.1    50      4.7   939.0    0.00     764    92.7
 242   10:10   97.6    12    1.2    30      3.5   938.8    0.00     797    92.6
 242   10:20   98.1    11    1.9    46      4.8   938.6    0.00     901    92.6
 242   10:30   99.1    11    1.2    19      5.0   938.6    0.00     902    92.5
 242   10:40  100.3    11    1.4    39      4.5   938.4    0.00    1000    92.5
 242   10:50  101.9    11    1.4    38      4.0   938.3    0.00    1054    92.5
 242   11:00  101.8    11    1.5    36      4.4   938.2    0.00     716    92.5
 242   11:10  102.0    11    2.5    54      7.8   937.9    0.00     962    92.6
 242   11:20  103.2    10    2.1    13      7.4   937.6    0.00    1099    92.6
 242   11:30  104.2    10    6.1   184     14.5   937.3    0.00    1069    92.7
 242   11:40  103.0     9    7.8   176     15.4   937.2    0.00     626    92.8
 242   11:50  102.8     9    6.9   184     13.0   937.1    0.00     685    92.9
 242   12:00  102.1     9    9.0   176     16.9   936.9    0.00     519    93.1
 242   12:10  102.9     9    8.2   176     13.1   936.8    0.00     905    93.2
 242   12:20  103.0     9    7.8   174     14.8   936.8    0.00     514    93.4
 242   12:30  102.6     9    5.1   184     10.0   936.8    0.00     464    93.5
 242   12:40  103.1     9    4.8   175     15.1   936.7    0.00     664    93.7
 242   12:50  103.7     9    5.4   183     10.0   936.7    0.00     810    93.8
 242   13:00  104.2     8    4.8   185     10.2   936.5    0.00     546    94.1
 242   13:10  103.5     8    5.5   186     10.2   936.3    0.00     608    94.3
 242   13:20  103.9     8    5.1   190     10.7   936.1    0.00     526    94.4
 242   13:30  104.6     8    4.7   180     10.4   935.9    0.00     844    94.6
 242   13:40  104.6     8    4.7   188     10.4   935.7    0.00     455    94.7
 242   13:50  103.7     8    5.9   196     11.5   935.5    0.00     561    94.9
 242   14:00  105.0     8    4.0   213      8.2   935.4    0.00     774    95.1
 242   14:10  104.9     8    5.8   195     12.9   935.2    0.00     651    95.3
 242   14:20  105.4     8    5.1   223     13.3   935.1    0.00     830    95.4
 242   14:30  104.8     8    7.3   201     15.8   935.0    0.00     776    95.6
 242   14:40  106.3     8    4.3   222      9.1   934.8    0.00     790    95.7
 242   14:50  105.7     8    5.6   204     13.9   934.7    0.00     707    95.9
 242   15:00  105.9     8    4.3   200      9.1   934.6    0.00     667    96.0
 242   15:10  105.6     8    6.0   208     14.1   934.4    0.00     655    96.2
 242   15:20  105.7     8    5.3   217     10.7   934.3    0.00     609    96.3
 242   15:30  105.5     8    5.1   202      9.1   934.2    0.00     573    96.5
 242   15:40  105.2     8    6.6   191     14.9   934.1    0.00     527    96.7
 242   15:50  105.4     8    5.8   205     13.5   934.1    0.00     470    96.9
 242   16:00  104.8     8    4.6   205      9.7   934.1    0.00     342    97.0
 242   16:10  104.5     8    6.9   202     19.8   934.0    0.00     359    97.2
 242   16:20  104.0     8    6.4   205     14.7   933.9    0.00     288    97.4
 242   16:30  103.8     8    6.7   195     14.4   934.0    0.00     346    97.6
 242   16:40  103.4     8    6.9   200     14.2   933.9    0.00     162    97.7
 242   16:50  102.6     7    6.7   207     12.4   933.9    0.00     116    97.9
 242   17:00  102.7     7    5.2   211     12.6   933.9    0.00     197    98.0
 242   17:10  102.9     7    6.4   209     12.4   933.8    0.00     180    98.1
 242   17:20  102.3     7    6.0   194     11.0   933.8    0.00     129    98.3
 242   17:30  102.1     8    5.9   194     12.3   933.7    0.00      86    98.4
 242   17:40  101.6     8    7.1   194     12.5   933.8    0.00      72    98.5
 242   17:50  101.2     8    6.8   189     13.6   933.9    0.00      27    98.6
 242   18:00  100.9     8    7.7   187     15.2   934.0    0.00      15    98.7
 242   18:10  100.6     8    6.7   190     12.2   934.1    0.00       8    98.8
 242   18:20  100.4     8    6.1   188     14.4   934.1    0.00       7    98.9
 242   18:30  100.1     8    6.4   185     11.8   934.0    0.00       3    98.9
 242   18:40   99.8     8    5.5   189     12.9   934.0    0.00       0    99.0
 242   18:50   99.7     8    6.0   188     11.3   934.0    0.00       0    99.0
 242   19:00   99.6     8    5.4   193     10.1   934.1    0.00       0    99.0
 242   19:10   99.4     9    6.1   196      9.9   934.2    0.00       0    99.0
 242   19:20   99.4     9    5.9   193     11.5   934.2    0.00       0    99.0
 242   19:30   99.0     9    5.1   188      8.7   934.3    0.00       0    99.0
 242   19:40   98.7     9    4.3   188      7.4   934.5    0.00       0    99.0
 242   19:50   98.7     9    4.4   192      9.2   934.5    0.00       0    98.9
 242   20:00   98.5     9    4.3   192      7.4   934.5    0.00       0    98.9
 242   20:10   98.3     9    5.0   185      9.0   934.5    0.00       0    99.0
 242   20:20   98.3     9    4.6   185      8.1   934.6    0.00       0    98.9
 242   20:30   98.0    10    3.5   198      7.2   934.6    0.00       0    98.9
 242   20:40   97.7    10    3.7   193      8.0   934.7    0.00       0    98.9
 242   20:50   97.8    10    3.0   195      6.4   934.7    0.00       0    98.8
 242   21:00   96.6    10    4.2   172      7.6   934.8    0.00       0    98.8
 242   21:10   94.6    11    2.8   175      6.1   934.8    0.00       0    98.7
 242   21:20   93.6    11    1.1   173      3.1   934.7    0.00       0    98.7
 242   21:30   92.9    11    2.5   188      4.7   934.7    0.00       0    98.7
 242   21:40   92.7    11    3.7   175      6.4   934.7    0.00       1    98.5
 242   21:50   92.5    11    4.3   182      8.9   934.7    0.00       1    98.5
 242   22:00   92.8    11    4.7   179      8.6   934.5    0.00       0    98.4
 242   22:10   92.8    11    6.4   176     10.7   934.5    0.00       1    98.4
 242   22:20   92.5    11    4.7   182      7.8   934.5    0.00       1    98.3
 242   22:30   91.9    11    4.4   184      7.2   934.5    0.00       0    98.2
 242   22:40   91.4    12    4.7   187      7.7   934.5    0.00       1    98.2
 242   22:50   91.2    12    4.4   183      7.2   934.5    0.00       1    98.1
 242   23:00   91.2    12    3.4   193      8.3   934.6    0.00       2    98.0
 242   23:10   91.9    12    4.5   191      9.3   934.6    0.00       1    98.0
 242   23:20   92.2    13    4.2   188      7.2   934.6    0.00       1    97.9
 242   23:30   91.8    13    4.2   181      7.2   934.8    0.00       1    97.8
 242   23:40   91.8    13    5.6   178     10.4   934.7    0.00       1    97.7
 242   23:50   91.3    13    6.1   182     12.3   934.6    0.00       1    97.7
 243    0:00   90.7    14    4.9   191      8.1   934.7    0.00       1    97.6
 243    0:10   90.4    14    6.1   186     12.9   934.7    0.00       2    97.5

Return to Las Vegas, Nevada graphs page.


Western Regional Climate Center,wrcc@dri.edu